sensor_id;sensor_type;location;lat;lon;timestamp;pressure;altitude;pressure_sealevel;temperature;humidity
50682;BME280;36779;52.168;20.878;2023-07-30T00:01:59;99582.65;;;18.85;60.19
50682;BME280;36779;52.168;20.878;2023-07-30T00:04:30;99586.52;;;18.85;60.30
50682;BME280;36779;52.168;20.878;2023-07-30T00:07:01;99587.58;;;18.83;60.16
50682;BME280;36779;52.168;20.878;2023-07-30T00:09:32;99582.42;;;18.81;60.24
50682;BME280;36779;52.168;20.878;2023-07-30T00:12:03;99584.79;;;18.77;60.51
50682;BME280;36779;52.168;20.878;2023-07-30T00:14:33;99581.27;;;18.77;60.38
50682;BME280;36779;52.168;20.878;2023-07-30T00:17:04;99581.74;;;18.75;60.52
50682;BME280;36779;52.168;20.878;2023-07-30T00:19:35;99586.02;;;18.75;60.62
50682;BME280;36779;52.168;20.878;2023-07-30T00:22:06;99593.50;;;18.73;60.61
50682;BME280;36779;52.168;20.878;2023-07-30T00:24:36;99592.55;;;18.72;60.65
50682;BME280;36779;52.168;20.878;2023-07-30T00:27:07;99592.30;;;18.70;60.76
50682;BME280;36779;52.168;20.878;2023-07-30T00:29:38;99601.59;;;18.70;60.86
50682;BME280;36779;52.168;20.878;2023-07-30T00:32:08;99604.58;;;18.69;60.77
50682;BME280;36779;52.168;20.878;2023-07-30T00:34:40;99601.83;;;18.66;60.92
50682;BME280;36779;52.168;20.878;2023-07-30T00:37:13;99601.29;;;18.62;60.83
50682;BME280;36779;52.168;20.878;2023-07-30T00:39:43;99605.04;;;18.56;60.89
50682;BME280;36779;52.168;20.878;2023-07-30T00:42:14;99606.22;;;18.53;61.05
50682;BME280;36779;52.168;20.878;2023-07-30T00:44:45;99609.14;;;18.52;61.02
50682;BME280;36779;52.168;20.878;2023-07-30T00:47:16;99604.70;;;18.49;61.12
50682;BME280;36779;52.168;20.878;2023-07-30T00:49:47;99599.80;;;18.47;61.21
50682;BME280;36779;52.168;20.878;2023-07-30T00:52:20;99598.40;;;18.47;61.29
50682;BME280;36779;52.168;20.878;2023-07-30T00:54:51;99603.37;;;18.47;61.50
50682;BME280;36779;52.168;20.878;2023-07-30T00:57:23;99598.18;;;18.47;61.34
50682;BME280;36779;52.168;20.878;2023-07-30T00:59:53;99595.33;;;18.47;61.35
50682;BME280;36779;52.168;20.878;2023-07-30T01:02:25;99609.70;;;18.46;61.40
50682;BME280;36779;52.168;20.878;2023-07-30T01:04:57;99611.70;;;18.46;61.53
50682;BME280;36779;52.168;20.878;2023-07-30T01:07:30;99613.04;;;18.50;61.72
50682;BME280;36779;52.168;20.878;2023-07-30T01:10:00;99612.97;;;18.52;61.85
50682;BME280;36779;52.168;20.878;2023-07-30T01:12:32;99618.36;;;18.53;61.81
50682;BME280;36779;52.168;20.878;2023-07-30T01:15:05;99620.10;;;18.52;61.82
50682;BME280;36779;52.168;20.878;2023-07-30T01:17:37;99617.70;;;18.51;61.79
50682;BME280;36779;52.168;20.878;2023-07-30T01:20:08;99618.20;;;18.51;61.89
50682;BME280;36779;52.168;20.878;2023-07-30T01:22:40;99621.23;;;18.54;62.08
50682;BME280;36779;52.168;20.878;2023-07-30T01:25:11;99623.57;;;18.56;62.02
50682;BME280;36779;52.168;20.878;2023-07-30T01:27:42;99620.14;;;18.60;62.04
50682;BME280;36779;52.168;20.878;2023-07-30T01:30:16;99620.81;;;18.63;62.07
50682;BME280;36779;52.168;20.878;2023-07-30T01:32:48;99624.64;;;18.61;62.17
50682;BME280;36779;52.168;20.878;2023-07-30T01:35:20;99620.89;;;18.57;62.08
50682;BME280;36779;52.168;20.878;2023-07-30T01:37:51;99620.74;;;18.58;62.20
50682;BME280;36779;52.168;20.878;2023-07-30T01:40:22;99621.49;;;18.56;62.13
50682;BME280;36779;52.168;20.878;2023-07-30T01:42:53;99626.35;;;18.53;62.21
50682;BME280;36779;52.168;20.878;2023-07-30T01:45:24;99620.02;;;18.50;62.10
50682;BME280;36779;52.168;20.878;2023-07-30T01:47:55;99623.42;;;18.50;62.32
50682;BME280;36779;52.168;20.878;2023-07-30T01:50:25;99622.98;;;18.48;62.25
50682;BME280;36779;52.168;20.878;2023-07-30T01:52:57;99626.58;;;18.47;62.39
50682;BME280;36779;52.168;20.878;2023-07-30T01:55:28;99627.71;;;18.47;62.45
50682;BME280;36779;52.168;20.878;2023-07-30T01:58:01;99625.46;;;18.44;62.39
50682;BME280;36779;52.168;20.878;2023-07-30T02:00:32;99626.95;;;18.45;62.44
50682;BME280;36779;52.168;20.878;2023-07-30T02:03:06;99629.46;;;18.48;62.59
50682;BME280;36779;52.168;20.878;2023-07-30T02:05:37;99633.25;;;18.48;62.43
50682;BME280;36779;52.168;20.878;2023-07-30T02:08:08;99637.48;;;18.49;62.58
50682;BME280;36779;52.168;20.878;2023-07-30T02:10:38;99639.15;;;18.48;62.64
50682;BME280;36779;52.168;20.878;2023-07-30T02:13:09;99644.48;;;18.47;62.58
50682;BME280;36779;52.168;20.878;2023-07-30T02:15:41;99643.14;;;18.45;62.61
50682;BME280;36779;52.168;20.878;2023-07-30T02:18:12;99644.36;;;18.44;62.61
50682;BME280;36779;52.168;20.878;2023-07-30T02:20:42;99646.37;;;18.45;62.76
50682;BME280;36779;52.168;20.878;2023-07-30T02:23:14;99647.16;;;18.42;62.64
50682;BME280;36779;52.168;20.878;2023-07-30T02:25:45;99648.54;;;18.43;62.70
50682;BME280;36779;52.168;20.878;2023-07-30T02:28:15;99656.48;;;18.43;62.71
50682;BME280;36779;52.168;20.878;2023-07-30T02:30:47;99658.46;;;18.43;62.73
50682;BME280;36779;52.168;20.878;2023-07-30T02:33:17;99660.04;;;18.39;62.80
50682;BME280;36779;52.168;20.878;2023-07-30T02:35:48;99661.38;;;18.39;62.80
50682;BME280;36779;52.168;20.878;2023-07-30T02:38:18;99662.21;;;18.35;62.61
50682;BME280;36779;52.168;20.878;2023-07-30T02:40:49;99664.09;;;18.29;62.68
50682;BME280;36779;52.168;20.878;2023-07-30T02:43:20;99665.58;;;18.27;62.59
50682;BME280;36779;52.168;20.878;2023-07-30T02:45:50;99664.30;;;18.26;62.83
50682;BME280;36779;52.168;20.878;2023-07-30T02:48:21;99663.64;;;18.23;62.86
50682;BME280;36779;52.168;20.878;2023-07-30T02:50:52;99661.31;;;18.21;62.86
50682;BME280;36779;52.168;20.878;2023-07-30T02:53:22;99659.95;;;18.21;62.84
50682;BME280;36779;52.168;20.878;2023-07-30T02:55:53;99661.16;;;18.24;63.06
50682;BME280;36779;52.168;20.878;2023-07-30T02:58:24;99661.23;;;18.24;63.07
50682;BME280;36779;52.168;20.878;2023-07-30T03:00:55;99662.73;;;18.24;63.02
50682;BME280;36779;52.168;20.878;2023-07-30T03:03:25;99663.81;;;18.22;63.12
50682;BME280;36779;52.168;20.878;2023-07-30T03:05:57;99664.92;;;18.20;63.15
50682;BME280;36779;52.168;20.878;2023-07-30T03:08:31;99663.36;;;18.19;63.31
50682;BME280;36779;52.168;20.878;2023-07-30T03:11:02;99664.58;;;18.21;63.34
50682;BME280;36779;52.168;20.878;2023-07-30T03:13:33;99671.29;;;18.19;63.21
50682;BME280;36779;52.168;20.878;2023-07-30T03:16:04;99668.95;;;18.15;63.33
50682;BME280;36779;52.168;20.878;2023-07-30T03:18:35;99672.36;;;18.11;63.24
50682;BME280;36779;52.168;20.878;2023-07-30T03:21:05;99675.31;;;18.10;63.36
50682;BME280;36779;52.168;20.878;2023-07-30T03:23:36;99673.17;;;18.09;63.46
50682;BME280;36779;52.168;20.878;2023-07-30T03:26:07;99674.21;;;18.09;63.33
50682;BME280;36779;52.168;20.878;2023-07-30T03:28:37;99675.84;;;18.08;63.44
50682;BME280;36779;52.168;20.878;2023-07-30T03:31:09;99675.41;;;18.09;63.48
50682;BME280;36779;52.168;20.878;2023-07-30T03:33:40;99675.53;;;18.10;63.68
50682;BME280;36779;52.168;20.878;2023-07-30T03:36:13;99675.35;;;18.10;63.48
50682;BME280;36779;52.168;20.878;2023-07-30T03:38:44;99677.45;;;18.05;63.49
50682;BME280;36779;52.168;20.878;2023-07-30T03:41:15;99681.45;;;18.00;63.37
50682;BME280;36779;52.168;20.878;2023-07-30T03:43:46;99688.65;;;17.97;63.63
50682;BME280;36779;52.168;20.878;2023-07-30T03:46:16;99690.77;;;17.98;63.79
50682;BME280;36779;52.168;20.878;2023-07-30T03:48:48;99682.96;;;18.02;63.84
50682;BME280;36779;52.168;20.878;2023-07-30T03:51:19;99676.27;;;18.04;63.88
50682;BME280;36779;52.168;20.878;2023-07-30T03:53:52;99678.01;;;18.04;63.78
50682;BME280;36779;52.168;20.878;2023-07-30T03:56:23;99679.25;;;18.04;63.86
50682;BME280;36779;52.168;20.878;2023-07-30T03:58:58;99677.54;;;18.05;63.80
50682;BME280;36779;52.168;20.878;2023-07-30T04:01:31;99682.94;;;18.07;63.88
50682;BME280;36779;52.168;20.878;2023-07-30T04:04:03;99693.48;;;18.10;63.99
50682;BME280;36779;52.168;20.878;2023-07-30T04:06:34;99700.34;;;18.15;64.21
50682;BME280;36779;52.168;20.878;2023-07-30T04:09:05;99700.02;;;18.20;64.10
50682;BME280;36779;52.168;20.878;2023-07-30T04:11:37;99696.34;;;18.18;64.12
50682;BME280;36779;52.168;20.878;2023-07-30T04:14:08;99696.20;;;18.16;64.02
50682;BME280;36779;52.168;20.878;2023-07-30T04:16:39;99702.52;;;18.17;64.07
50682;BME280;36779;52.168;20.878;2023-07-30T04:19:09;99712.58;;;18.20;64.10
50682;BME280;36779;52.168;20.878;2023-07-30T04:21:40;99716.09;;;18.18;64.17
50682;BME280;36779;52.168;20.878;2023-07-30T04:24:11;99722.94;;;18.14;64.15
50682;BME280;36779;52.168;20.878;2023-07-30T04:26:42;99729.77;;;18.15;64.25
50682;BME280;36779;52.168;20.878;2023-07-30T04:29:13;99735.23;;;18.16;64.29
50682;BME280;36779;52.168;20.878;2023-07-30T04:31:46;99738.02;;;18.16;64.32
50682;BME280;36779;52.168;20.878;2023-07-30T04:34:17;99736.86;;;18.16;64.32
50682;BME280;36779;52.168;20.878;2023-07-30T04:36:48;99742.33;;;18.17;64.31
50682;BME280;36779;52.168;20.878;2023-07-30T04:39:19;99747.16;;;18.18;64.36
50682;BME280;36779;52.168;20.878;2023-07-30T04:41:49;99748.11;;;18.21;64.45
50682;BME280;36779;52.168;20.878;2023-07-30T04:44:20;99751.56;;;18.30;64.77
50682;BME280;36779;52.168;20.878;2023-07-30T04:46:50;99754.58;;;18.38;64.64
50682;BME280;36779;52.168;20.878;2023-07-30T04:49:22;99752.69;;;18.45;64.55
50682;BME280;36779;52.168;20.878;2023-07-30T04:51:54;99756.21;;;18.51;64.45
50682;BME280;36779;52.168;20.878;2023-07-30T04:54:25;99760.20;;;18.53;64.53
50682;BME280;36779;52.168;20.878;2023-07-30T04:56:58;99760.75;;;18.57;64.62
50682;BME280;36779;52.168;20.878;2023-07-30T04:59:28;99765.92;;;18.61;64.59
50682;BME280;36779;52.168;20.878;2023-07-30T05:01:59;99768.74;;;18.64;64.48
50682;BME280;36779;52.168;20.878;2023-07-30T05:04:30;99769.94;;;18.65;64.54
50682;BME280;36779;52.168;20.878;2023-07-30T05:07:01;99771.20;;;18.67;64.53
50682;BME280;36779;52.168;20.878;2023-07-30T05:09:31;99775.33;;;18.68;64.73
50682;BME280;36779;52.168;20.878;2023-07-30T05:12:02;99778.91;;;18.72;64.64
50682;BME280;36779;52.168;20.878;2023-07-30T05:14:33;99780.73;;;18.75;64.59
50682;BME280;36779;52.168;20.878;2023-07-30T05:17:04;99779.51;;;18.80;64.77
50682;BME280;36779;52.168;20.878;2023-07-30T05:19:34;99784.71;;;18.87;64.74
50682;BME280;36779;52.168;20.878;2023-07-30T05:22:05;99792.52;;;18.95;64.94
50682;BME280;36779;52.168;20.878;2023-07-30T05:24:37;99795.86;;;19.03;64.83
50682;BME280;36779;52.168;20.878;2023-07-30T05:27:07;99798.48;;;19.06;64.76
50682;BME280;36779;52.168;20.878;2023-07-30T05:29:38;99797.39;;;19.06;64.83
50682;BME280;36779;52.168;20.878;2023-07-30T05:32:09;99797.85;;;19.05;64.79
50682;BME280;36779;52.168;20.878;2023-07-30T05:34:39;99804.99;;;19.09;64.95
50682;BME280;36779;52.168;20.878;2023-07-30T05:37:11;99807.92;;;19.15;64.88
50682;BME280;36779;52.168;20.878;2023-07-30T05:39:42;99810.02;;;19.16;64.84
50682;BME280;36779;52.168;20.878;2023-07-30T05:42:15;99815.27;;;19.24;64.94
50682;BME280;36779;52.168;20.878;2023-07-30T05:44:46;99820.89;;;19.32;64.92
50682;BME280;36779;52.168;20.878;2023-07-30T05:47:16;99820.66;;;19.32;64.76
50682;BME280;36779;52.168;20.878;2023-07-30T05:49:47;99820.86;;;19.35;65.00
50682;BME280;36779;52.168;20.878;2023-07-30T05:52:18;99815.23;;;19.46;65.07
50682;BME280;36779;52.168;20.878;2023-07-30T05:54:50;99817.25;;;19.51;64.88
50682;BME280;36779;52.168;20.878;2023-07-30T05:57:21;99819.30;;;19.62;64.94
50682;BME280;36779;52.168;20.878;2023-07-30T05:59:51;99819.90;;;19.63;64.73
50682;BME280;36779;52.168;20.878;2023-07-30T06:02:22;99823.32;;;19.65;64.74
50682;BME280;36779;52.168;20.878;2023-07-30T06:04:53;99827.75;;;19.71;64.70
50682;BME280;36779;52.168;20.878;2023-07-30T06:07:24;99827.67;;;19.76;64.72
50682;BME280;36779;52.168;20.878;2023-07-30T06:09:54;99827.51;;;19.78;64.58
50682;BME280;36779;52.168;20.878;2023-07-30T06:12:25;99826.90;;;19.84;64.75
50682;BME280;36779;52.168;20.878;2023-07-30T06:14:59;99828.73;;;20.02;64.78
50682;BME280;36779;52.168;20.878;2023-07-30T06:17:32;99832.55;;;20.07;64.64
50682;BME280;36779;52.168;20.878;2023-07-30T06:20:02;99839.12;;;20.13;64.66
50682;BME280;36779;52.168;20.878;2023-07-30T06:22:33;99837.27;;;20.23;64.80
50682;BME280;36779;52.168;20.878;2023-07-30T06:25:04;99838.09;;;20.32;64.56
50682;BME280;36779;52.168;20.878;2023-07-30T06:27:35;99838.52;;;20.32;64.53
50682;BME280;36779;52.168;20.878;2023-07-30T06:30:07;99835.63;;;20.33;64.37
50682;BME280;36779;52.168;20.878;2023-07-30T06:32:38;99840.53;;;20.24;64.27
50682;BME280;36779;52.168;20.878;2023-07-30T06:35:09;99843.36;;;20.20;64.36
50682;BME280;36779;52.168;20.878;2023-07-30T06:37:40;99847.60;;;20.18;64.24
50682;BME280;36779;52.168;20.878;2023-07-30T06:40:10;99845.60;;;20.18;64.22
50682;BME280;36779;52.168;20.878;2023-07-30T06:42:41;99841.79;;;20.17;64.39
50682;BME280;36779;52.168;20.878;2023-07-30T06:45:11;99838.01;;;20.20;64.40
50682;BME280;36779;52.168;20.878;2023-07-30T06:47:42;99840.14;;;20.23;64.43
50682;BME280;36779;52.168;20.878;2023-07-30T06:50:13;99843.04;;;20.32;64.49
50682;BME280;36779;52.168;20.878;2023-07-30T06:52:43;99841.89;;;20.40;64.30
50682;BME280;36779;52.168;20.878;2023-07-30T06:55:14;99842.64;;;20.39;64.31
50682;BME280;36779;52.168;20.878;2023-07-30T06:57:45;99844.71;;;20.43;64.37
50682;BME280;36779;52.168;20.878;2023-07-30T07:00:15;99841.20;;;20.42;64.34
50682;BME280;36779;52.168;20.878;2023-07-30T07:02:51;99843.41;;;20.40;64.19
50682;BME280;36779;52.168;20.878;2023-07-30T07:05:22;99844.77;;;20.38;64.23
50682;BME280;36779;52.168;20.878;2023-07-30T07:07:53;99844.57;;;20.49;64.47
50682;BME280;36779;52.168;20.878;2023-07-30T07:10:23;99846.65;;;20.63;64.41
50682;BME280;36779;52.168;20.878;2023-07-30T07:12:54;99846.39;;;20.84;64.51
50682;BME280;36779;52.168;20.878;2023-07-30T07:15:25;99848.46;;;20.99;64.44
50682;BME280;36779;52.168;20.878;2023-07-30T07:17:57;99854.79;;;21.11;64.37
50682;BME280;36779;52.168;20.878;2023-07-30T07:20:28;99859.17;;;21.16;64.23
50682;BME280;36779;52.168;20.878;2023-07-30T07:23:01;99861.81;;;21.22;64.19
50682;BME280;36779;52.168;20.878;2023-07-30T07:25:32;99858.11;;;21.25;63.93
50682;BME280;36779;52.168;20.878;2023-07-30T07:28:03;99858.83;;;21.26;63.82
50682;BME280;36779;52.168;20.878;2023-07-30T07:30:35;99858.92;;;21.35;64.02
50682;BME280;36779;52.168;20.878;2023-07-30T07:33:06;99862.10;;;21.51;64.00
50682;BME280;36779;52.168;20.878;2023-07-30T07:35:40;99859.98;;;21.61;63.70
50682;BME280;36779;52.168;20.878;2023-07-30T07:38:11;99858.09;;;21.57;63.58
50682;BME280;36779;52.168;20.878;2023-07-30T07:40:42;99860.27;;;21.61;63.80
50682;BME280;36779;52.168;20.878;2023-07-30T07:43:12;99860.45;;;21.70;63.86
50682;BME280;36779;52.168;20.878;2023-07-30T07:45:43;99858.88;;;21.73;63.64
50682;BME280;36779;52.168;20.878;2023-07-30T07:48:13;99853.58;;;21.70;63.41
50682;BME280;36779;52.168;20.878;2023-07-30T07:50:44;99855.90;;;21.67;63.38
50682;BME280;36779;52.168;20.878;2023-07-30T07:53:15;99851.52;;;21.60;63.16
50682;BME280;36779;52.168;20.878;2023-07-30T07:55:45;99856.27;;;21.52;63.11
50682;BME280;36779;52.168;20.878;2023-07-30T07:58:16;99853.79;;;21.47;63.07
50682;BME280;36779;52.168;20.878;2023-07-30T08:00:47;99856.02;;;21.43;63.05
50682;BME280;36779;52.168;20.878;2023-07-30T08:03:18;99854.45;;;21.47;63.25
50682;BME280;36779;52.168;20.878;2023-07-30T08:05:49;99861.48;;;21.63;63.54
50682;BME280;36779;52.168;20.878;2023-07-30T08:08:20;99866.09;;;21.80;63.59
50682;BME280;36779;52.168;20.878;2023-07-30T08:10:53;99856.89;;;21.93;63.59
50682;BME280;36779;52.168;20.878;2023-07-30T08:13:23;99854.31;;;22.03;63.49
50682;BME280;36779;52.168;20.878;2023-07-30T08:15:54;99852.75;;;22.14;63.49
50682;BME280;36779;52.168;20.878;2023-07-30T08:18:25;99858.73;;;22.23;63.32
50682;BME280;36779;52.168;20.878;2023-07-30T08:20:59;99863.10;;;22.33;63.44
50682;BME280;36779;52.168;20.878;2023-07-30T08:23:32;99861.17;;;22.40;63.25
50682;BME280;36779;52.168;20.878;2023-07-30T08:26:03;99863.02;;;22.49;63.31
50682;BME280;36779;52.168;20.878;2023-07-30T08:28:33;99859.23;;;22.58;63.25
50682;BME280;36779;52.168;20.878;2023-07-30T08:31:04;99862.45;;;22.60;62.83
50682;BME280;36779;52.168;20.878;2023-07-30T08:33:35;99861.95;;;22.63;63.07
50682;BME280;36779;52.168;20.878;2023-07-30T08:36:06;99861.08;;;22.72;62.95
50682;BME280;36779;52.168;20.878;2023-07-30T08:38:37;99867.89;;;22.85;62.94
50682;BME280;36779;52.168;20.878;2023-07-30T08:41:07;99870.16;;;22.92;62.72
50682;BME280;36779;52.168;20.878;2023-07-30T08:43:38;99865.35;;;22.81;62.29
50682;BME280;36779;52.168;20.878;2023-07-30T08:46:09;99867.10;;;22.76;62.45
50682;BME280;36779;52.168;20.878;2023-07-30T08:48:39;99867.36;;;22.81;62.64
50682;BME280;36779;52.168;20.878;2023-07-30T08:51:14;99866.90;;;22.89;62.53
50682;BME280;36779;52.168;20.878;2023-07-30T08:53:46;99871.59;;;22.85;62.28
50682;BME280;36779;52.168;20.878;2023-07-30T08:56:17;99871.70;;;22.87;62.42
50682;BME280;36779;52.168;20.878;2023-07-30T08:58:50;99868.89;;;22.94;62.50
50682;BME280;36779;52.168;20.878;2023-07-30T09:01:27;99870.83;;;23.09;62.63
50682;BME280;36779;52.168;20.878;2023-07-30T09:04:02;99868.00;;;23.27;62.64
50682;BME280;36779;52.168;20.878;2023-07-30T09:06:33;99873.05;;;23.44;62.61
50682;BME280;36779;52.168;20.878;2023-07-30T09:09:04;99875.52;;;23.62;62.25
50682;BME280;36779;52.168;20.878;2023-07-30T09:11:34;99880.55;;;23.68;62.14
50682;BME280;36779;52.168;20.878;2023-07-30T09:14:06;99883.04;;;23.80;61.93
50682;BME280;36779;52.168;20.878;2023-07-30T09:16:37;99883.75;;;23.90;61.97
50682;BME280;36779;52.168;20.878;2023-07-30T09:19:07;99881.61;;;24.12;62.03
50682;BME280;36779;52.168;20.878;2023-07-30T09:21:38;99879.13;;;24.27;61.87
50682;BME280;36779;52.168;20.878;2023-07-30T09:24:10;99883.63;;;24.40;61.90
50682;BME280;36779;52.168;20.878;2023-07-30T09:26:41;99886.39;;;24.46;61.23
50682;BME280;36779;52.168;20.878;2023-07-30T09:29:13;99882.89;;;24.43;61.18
50682;BME280;36779;52.168;20.878;2023-07-30T09:31:47;99882.47;;;24.47;61.35
50682;BME280;36779;52.168;20.878;2023-07-30T09:34:18;99884.02;;;24.54;61.16
50682;BME280;36779;52.168;20.878;2023-07-30T09:36:50;99887.22;;;24.64;61.36
50682;BME280;36779;52.168;20.878;2023-07-30T09:39:21;99886.54;;;24.93;61.74
50682;BME280;36779;52.168;20.878;2023-07-30T09:41:52;99885.32;;;25.24;61.49
50682;BME280;36779;52.168;20.878;2023-07-30T09:44:23;99889.70;;;25.52;61.57
50682;BME280;36779;52.168;20.878;2023-07-30T09:46:54;99891.83;;;25.81;61.48
50682;BME280;36779;52.168;20.878;2023-07-30T09:49:24;99889.51;;;26.02;61.13
50682;BME280;36779;52.168;20.878;2023-07-30T09:51:55;99891.02;;;26.14;60.49
50682;BME280;36779;52.168;20.878;2023-07-30T09:54:27;99888.84;;;26.10;60.32
50682;BME280;36779;52.168;20.878;2023-07-30T09:56:59;99883.77;;;26.23;60.76
50682;BME280;36779;52.168;20.878;2023-07-30T09:59:32;99877.42;;;26.48;60.55
50682;BME280;36779;52.168;20.878;2023-07-30T10:02:02;99877.09;;;26.44;59.78
50682;BME280;36779;52.168;20.878;2023-07-30T10:04:33;99873.23;;;26.38;59.80
50682;BME280;36779;52.168;20.878;2023-07-30T10:07:06;99874.80;;;26.46;59.95
50682;BME280;36779;52.168;20.878;2023-07-30T10:09:39;99873.14;;;26.66;59.90
50682;BME280;36779;52.168;20.878;2023-07-30T10:12:13;99865.42;;;26.98;60.25
50682;BME280;36779;52.168;20.878;2023-07-30T10:14:44;99866.25;;;27.38;60.05
50682;BME280;36779;52.168;20.878;2023-07-30T10:17:16;99869.66;;;27.56;59.50
50682;BME280;36779;52.168;20.878;2023-07-30T10:19:48;99868.61;;;27.67;59.22
50682;BME280;36779;52.168;20.878;2023-07-30T10:22:22;99869.29;;;27.65;58.67
50682;BME280;36779;52.168;20.878;2023-07-30T10:24:57;99867.26;;;27.67;58.79
50682;BME280;36779;52.168;20.878;2023-07-30T10:27:35;99859.96;;;27.93;59.04
50682;BME280;36779;52.168;20.878;2023-07-30T10:30:09;99851.33;;;28.32;59.23
50682;BME280;36779;52.168;20.878;2023-07-30T10:32:40;99849.96;;;28.61;58.73
50682;BME280;36779;52.168;20.878;2023-07-30T10:35:12;99852.91;;;28.59;57.96
50682;BME280;36779;52.168;20.878;2023-07-30T10:38:08;99850.98;;;28.40;57.44
50682;BME280;36779;52.168;20.878;2023-07-30T10:40:42;99857.46;;;28.11;57.08
50682;BME280;36779;52.168;20.878;2023-07-30T10:43:33;99858.51;;;27.65;56.66
50682;BME280;36779;52.168;20.878;2023-07-30T10:46:04;99858.27;;;27.10;56.29
50682;BME280;36779;52.168;20.878;2023-07-30T10:48:35;99858.71;;;26.65;56.42
50682;BME280;36779;52.168;20.878;2023-07-30T10:51:07;99851.95;;;26.51;56.92
50682;BME280;36779;52.168;20.878;2023-07-30T10:53:38;99849.58;;;26.54;57.27
50682;BME280;36779;52.168;20.878;2023-07-30T10:56:09;99849.25;;;26.77;57.42
50682;BME280;36779;52.168;20.878;2023-07-30T10:58:40;99847.11;;;27.05;57.40
50682;BME280;36779;52.168;20.878;2023-07-30T11:01:12;99849.23;;;27.31;57.45
50682;BME280;36779;52.168;20.878;2023-07-30T11:03:43;99845.11;;;27.62;57.59
50682;BME280;36779;52.168;20.878;2023-07-30T11:06:13;99839.73;;;27.90;57.43
50682;BME280;36779;52.168;20.878;2023-07-30T11:08:44;99837.80;;;28.07;57.22
50682;BME280;36779;52.168;20.878;2023-07-30T11:11:14;99844.31;;;28.25;57.17
50682;BME280;36779;52.168;20.878;2023-07-30T11:13:46;99839.96;;;28.46;56.90
50682;BME280;36779;52.168;20.878;2023-07-30T11:16:17;99832.77;;;28.42;56.13
50682;BME280;36779;52.168;20.878;2023-07-30T11:18:50;99837.94;;;28.31;56.10
50682;BME280;36779;52.168;20.878;2023-07-30T11:21:21;99828.84;;;28.35;56.17
50682;BME280;36779;52.168;20.878;2023-07-30T11:24:00;99827.92;;;28.33;55.85
50682;BME280;36779;52.168;20.878;2023-07-30T11:26:30;99827.86;;;28.34;56.05
50682;BME280;36779;52.168;20.878;2023-07-30T11:29:01;99826.54;;;28.50;56.23
50682;BME280;36779;52.168;20.878;2023-07-30T11:31:44;99827.30;;;28.67;55.85
50682;BME280;36779;52.168;20.878;2023-07-30T11:34:16;99825.65;;;28.63;55.61
50682;BME280;36779;52.168;20.878;2023-07-30T11:36:47;99820.23;;;28.77;55.67
50682;BME280;36779;52.168;20.878;2023-07-30T11:39:18;99820.07;;;29.05;55.84
50682;BME280;36779;52.168;20.878;2023-07-30T11:41:49;99822.11;;;29.31;55.74
50682;BME280;36779;52.168;20.878;2023-07-30T11:44:33;99821.77;;;29.58;55.77
50682;BME280;36779;52.168;20.878;2023-07-30T11:47:05;99821.54;;;29.86;55.33
50682;BME280;36779;52.168;20.878;2023-07-30T11:49:36;99820.67;;;29.83;54.84
50682;BME280;36779;52.168;20.878;2023-07-30T11:52:07;99823.33;;;29.63;54.49
50682;BME280;36779;52.168;20.878;2023-07-30T11:54:41;99828.48;;;29.44;54.44
50682;BME280;36779;52.168;20.878;2023-07-30T11:57:14;99827.91;;;29.26;54.39
50682;BME280;36779;52.168;20.878;2023-07-30T11:59:44;99828.33;;;29.03;54.05
50682;BME280;36779;52.168;20.878;2023-07-30T12:02:17;99828.61;;;28.59;53.49
50682;BME280;36779;52.168;20.878;2023-07-30T12:04:48;99833.33;;;28.13;53.67
50682;BME280;36779;52.168;20.878;2023-07-30T12:07:41;99830.93;;;27.83;53.86
50682;BME280;36779;52.168;20.878;2023-07-30T12:10:12;99828.69;;;27.77;54.33
50682;BME280;36779;52.168;20.878;2023-07-30T12:12:47;99830.14;;;27.91;54.57
50682;BME280;36779;52.168;20.878;2023-07-30T12:15:21;99832.02;;;27.94;54.21
50682;BME280;36779;52.168;20.878;2023-07-30T12:17:52;99833.19;;;27.82;54.02
50682;BME280;36779;52.168;20.878;2023-07-30T12:20:23;99838.34;;;27.68;53.84
50682;BME280;36779;52.168;20.878;2023-07-30T12:22:58;99837.36;;;27.42;53.49
50682;BME280;36779;52.168;20.878;2023-07-30T12:25:29;99833.14;;;27.13;53.51
50682;BME280;36779;52.168;20.878;2023-07-30T12:28:00;99832.32;;;26.98;53.85
50682;BME280;36779;52.168;20.878;2023-07-30T12:30:32;99826.84;;;26.84;53.66
50682;BME280;36779;52.168;20.878;2023-07-30T12:33:05;99831.33;;;26.65;53.82
50682;BME280;36779;52.168;20.878;2023-07-30T12:35:36;99830.73;;;26.64;54.09
50682;BME280;36779;52.168;20.878;2023-07-30T12:38:07;99825.86;;;26.83;54.43
50682;BME280;36779;52.168;20.878;2023-07-30T12:40:40;99823.34;;;27.06;54.54
50682;BME280;36779;52.168;20.878;2023-07-30T12:43:11;99822.21;;;27.28;54.57
50682;BME280;36779;52.168;20.878;2023-07-30T12:45:42;99823.05;;;27.52;54.60
50682;BME280;36779;52.168;20.878;2023-07-30T12:48:13;99819.59;;;27.77;54.49
50682;BME280;36779;52.168;20.878;2023-07-30T12:50:43;99820.14;;;27.87;54.12
50682;BME280;36779;52.168;20.878;2023-07-30T12:53:14;99816.79;;;27.89;54.01
50682;BME280;36779;52.168;20.878;2023-07-30T12:55:45;99816.91;;;27.88;53.83
50682;BME280;36779;52.168;20.878;2023-07-30T12:58:16;99815.98;;;27.87;53.82
50682;BME280;36779;52.168;20.878;2023-07-30T13:00:46;99817.74;;;27.97;54.00
50682;BME280;36779;52.168;20.878;2023-07-30T13:03:17;99815.58;;;27.99;53.70
50682;BME280;36779;52.168;20.878;2023-07-30T13:05:48;99813.74;;;27.96;53.72
50682;BME280;36779;52.168;20.878;2023-07-30T13:08:19;99814.20;;;27.96;53.65
50682;BME280;36779;52.168;20.878;2023-07-30T13:10:50;99814.66;;;27.98;53.75
50682;BME280;36779;52.168;20.878;2023-07-30T13:13:21;99813.52;;;28.00;53.83